EDT,Max TemperatureF,Mean TemperatureF,Min TemperatureF,Max Dew PointF,MeanDew PointF,Min DewpointF,Max Humidity, Mean Humidity, Min Humidity, Max Sea Level PressureIn, Mean Sea Level PressureIn, Min Sea Level PressureIn, Max VisibilityMiles, Mean VisibilityMiles, Min VisibilityMiles, Max Wind SpeedMPH, Mean Wind SpeedMPH, Max Gust SpeedMPH,PrecipitationIn, CloudCover, Events, WindDirDegrees
2014-4-1,57,44,33,33,29,24,72,55,36,30.13,30.07,29.99,10,10,10,14,7,23,0.00,0,,327
2014-4-2,57,46,36,39,36,32,93,77,45,30.14,30.09,30.04,10,10,7,10,3,,0.00,3,,198
2014-4-3,60,44,30,34,25,17,96,52,20,30.14,30.09,30.03,10,9,6,10,3,,0.00,0,,25
2014-4-4,45,40,35,36,31,25,97,76,47,30.11,29.97,29.78,10,7,2,16,8,29,0.05,8,Rain,105
2014-4-5,52,44,37,40,32,20,97,74,41,30.04,29.82,29.74,10,8,2,18,7,31,0.13,6,Rain-Thunderstorm,328
2014-4-6,57,41,25,28,21,16,85,50,21,30.21,30.15,30.06,10,10,10,9,3,,0.00,0,,276
2014-4-7,51,40,30,47,36,21,97,77,33,30.23,30.01,29.75,10,7,2,15,5,24,0.15,5,Rain,108
2014-4-8,64,54,45,54,45,32,100,85,46,29.74,29.51,29.37,10,6,1,21,8,32,0.32,6,Rain,182
2014-4-9,59,44,32,34,25,9,92,48,22,30.04,29.76,29.62,10,10,10,21,6,29,0.00,1,,320
2014-4-10,57,42,27,31,24,17,78,47,29,30.20,30.10,30.03,10,10,10,16,6,24,0.00,0,,204
2014-4-11,70,60,48,52,41,31,97,59,40,30.04,29.99,29.95,10,10,6,13,7,17,0.06,4,Rain,244
2014-4-12,69,54,39,48,39,29,97,67,23,30.24,30.15,30.02,10,9,1,12,4,20,0.00,2,Rain,246
2014-4-13,73,57,41,54,47,34,83,66,49,30.22,30.12,29.99,10,10,10,14,5,25,0.00,2,,174
2014-4-14,72,64,57,56,53,51,87,71,54,30.03,29.95,29.87,10,10,9,18,11,31,0.00,0,,185
2014-4-15,61,47,33,59,52,31,100,93,86,29.89,29.72,29.54,10,4,1,29,12,38,1.28,8,Rain-Snow,196
2014-4-16,43,35,28,30,20,13,96,60,34,30.60,30.24,29.90,10,8,1,16,11,25,0.12,2,Snow,339
2014-4-17,48,38,27,29,23,18,85,59,34,30.75,30.68,30.62,10,10,10,14,4,17,0.00,0,,108
2014-4-18,48,38,28,32,27,23,96,69,44,30.62,30.47,30.26,10,10,9,9,3,,0.00,2,,117
2014-4-19,62,47,33,34,28,21,92,47,24,30.38,30.28,30.22,10,9,6,21,7,26,0.00,0,,328
2014-4-20,57,46,36,29,24,20,73,44,28,30.51,30.44,30.35,10,10,10,9,5,18,0.00,0,,96
2014-4-21,66,47,28,40,27,17,92,51,18,30.32,30.10,29.88,10,10,10,13,4,17,0.00,0,,221
2014-4-22,69,54,39,52,44,38,93,70,40,29.87,29.65,29.51,10,10,7,12,3,18,0.00,2,Rain,215
2014-4-23,55,50,45,49,38,21,96,69,39,29.79,29.59,29.49,10,9,4,22,9,38,0.02,6,Rain,325
2014-4-24,57,48,39,24,16,12,49,29,17,30.03,29.88,29.80,10,10,10,21,11,32,0.00,0,,324
2014-4-25,62,46,32,30,24,18,69,38,23,30.05,29.95,29.82,10,10,10,13,4,20,0.00,1,Rain,187
2014-4-26,62,50,41,47,41,35,93,81,42,29.88,29.79,29.72,10,7,1,10,4,,0.81,8,Rain,31
2014-4-27,52,46,39,42,36,32,96,68,48,30.13,29.98,29.88,10,10,9,13,5,22,0.00,6,Rain,324
2014-4-28,63,49,37,38,33,30,83,49,35,30.17,30.08,30.02,10,10,10,13,6,20,0.00,1,,338
2014-4-29,46,44,41,38,36,35,86,73,68,30.46,30.35,30.19,10,10,6,15,10,23,0.05,8,Rain,105
2014-4-30,48,44,39,46,40,35,93,90,82,30.46,30.28,30.04,10,5,2,16,11,28,1.96,8,Rain,90